Time;durP1;ratioP1;P1;durP2;ratioP2;P2;SDS_P1;SDS_P2;PMS_P1;PMS_P2;Temp;Humidity;BMP_temperature;BMP_pressure;BME280_temperature;BME280_humidity;BME280_pressure;Samples;Min_cycle;Max_cycle;Signal;HPM_P1;HPM_P2
2023/08/30 00:01:48;;;;;;;2.72;1.20;;;14.30;99.90;;;;;;5019052;28;20413;-62
2023/08/30 00:04:14;;;;;;;0.88;0.75;;;14.30;99.90;;;;;;5020971;28;20021;-64
2023/08/30 00:06:39;;;;;;;1.00;0.90;;;14.30;99.90;;;;;;5015765;28;20026;-64
2023/08/30 00:09:05;;;;;;;1.23;0.90;;;14.30;99.90;;;;;;5018392;28;20040;-63
2023/08/30 00:11:32;;;;;;;1.30;1.00;;;14.30;99.90;;;;;;5013874;28;20025;-63
2023/08/30 00:14:05;;;;;;;1.27;1.05;;;14.30;99.90;;;;;;5018107;28;20108;-62
2023/08/30 00:16:32;;;;;;;3.67;1.10;;;14.30;99.90;;;;;;5017519;28;20040;-61
2023/08/30 00:18:58;;;;;;;2.55;1.05;;;14.30;99.90;;;;;;5016245;28;20033;-61
2023/08/30 00:21:25;;;;;;;1.10;1.00;;;14.30;99.90;;;;;;5014382;28;20040;-64
2023/08/30 00:23:51;;;;;;;1.10;0.90;;;14.40;99.90;;;;;;5020417;28;20520;-63
2023/08/30 00:26:17;;;;;;;2.88;1.40;;;14.40;99.90;;;;;;5016614;28;20109;-63
2023/08/30 00:28:42;;;;;;;3.17;1.42;;;14.40;99.90;;;;;;5022257;28;20120;-62
2023/08/30 00:31:08;;;;;;;1.58;0.90;;;14.40;99.90;;;;;;5018303;28;20136;-63
2023/08/30 00:33:33;;;;;;;1.33;1.10;;;14.40;99.90;;;;;;5017482;28;20309;-61
2023/08/30 00:35:59;;;;;;;2.08;1.10;;;14.40;99.90;;;;;;5015232;28;20088;-62
2023/08/30 00:38:27;;;;;;;1.88;0.93;;;14.40;99.90;;;;;;5016661;28;20505;-62
2023/08/30 00:40:53;;;;;;;1.27;0.98;;;14.40;99.90;;;;;;5020199;28;20018;-63
2023/08/30 00:43:19;;;;;;;1.48;1.10;;;14.40;99.90;;;;;;5012602;28;20029;-63
2023/08/30 00:45:44;;;;;;;1.55;1.23;;;14.40;99.90;;;;;;5015187;28;20508;-62
2023/08/30 00:48:11;;;;;;;1.70;1.10;;;14.40;99.90;;;;;;5018883;28;20033;-62
2023/08/30 00:50:37;;;;;;;1.00;0.90;;;14.40;99.90;;;;;;5023217;28;20554;-62
2023/08/30 00:53:05;;;;;;;1.50;1.38;;;14.40;99.90;;;;;;5013769;28;20422;-62
2023/08/30 00:55:33;;;;;;;1.88;1.33;;;14.40;99.90;;;;;;5019380;28;20021;-62
2023/08/30 00:57:59;;;;;;;3.38;1.25;;;14.40;99.90;;;;;;5015851;28;20473;-62
2023/08/30 01:00:25;;;;;;;1.98;1.20;;;14.40;99.90;;;;;;5014615;28;20568;-62
2023/08/30 01:02:50;;;;;;;2.75;1.20;;;14.40;99.90;;;;;;5014679;28;20595;-62
2023/08/30 01:05:17;;;;;;;1.58;1.30;;;14.40;99.90;;;;;;5018525;28;20079;-62
2023/08/30 01:07:43;;;;;;;3.88;1.38;;;14.40;99.90;;;;;;5017190;28;20087;-62
2023/08/30 01:10:10;;;;;;;1.63;1.52;;;14.40;99.90;;;;;;5014549;28;20037;-62
2023/08/30 01:12:48;;;;;;;1.65;1.42;;;14.40;99.90;;;;;;5015620;28;20053;-62
2023/08/30 01:15:18;;;;;;;1.35;1.02;;;14.40;99.90;;;;;;5015305;28;20032;-62
2023/08/30 01:17:47;;;;;;;3.47;1.70;;;14.40;99.90;;;;;;5021398;28;20032;-62
2023/08/30 01:20:18;;;;;;;3.10;1.88;;;14.50;99.90;;;;;;5019165;28;20025;-62
2023/08/30 01:23:02;;;;;;;2.78;1.67;;;14.50;99.90;;;;;;5020677;28;20045;-63
2023/08/30 01:26:09;;;;;;;2.88;1.60;;;14.50;99.90;;;;;;5014342;28;20025;-63
2023/08/30 01:28:36;;;;;;;2.70;1.95;;;14.50;99.90;;;;;;5014143;28;20026;-62
2023/08/30 01:31:03;;;;;;;3.60;2.00;;;14.50;99.90;;;;;;5016602;28;20054;-62
2023/08/30 01:33:29;;;;;;;2.28;2.00;;;14.50;99.90;;;;;;5013039;28;20065;-62
2023/08/30 01:35:58;;;;;;;3.78;2.00;;;14.50;99.90;;;;;;5015418;28;20055;-62
2023/08/30 01:38:24;;;;;;;4.88;2.50;;;14.60;99.90;;;;;;5015464;28;20073;-62
2023/08/30 01:40:52;;;;;;;3.25;2.45;;;14.60;99.90;;;;;;5017466;28;20155;-62
2023/08/30 01:43:18;;;;;;;3.58;1.95;;;14.60;99.90;;;;;;5021164;28;20014;-61
2023/08/30 01:45:44;;;;;;;2.70;2.50;;;14.70;99.90;;;;;;5019137;28;20566;-62
2023/08/30 01:48:12;;;;;;;3.45;2.53;;;14.70;99.90;;;;;;5013026;28;20096;-63
2023/08/30 01:50:40;;;;;;;3.17;2.47;;;14.70;99.90;;;;;;5014204;28;20095;-62
2023/08/30 01:53:07;;;;;;;2.72;2.50;;;14.70;99.90;;;;;;5016078;28;20029;-63
2023/08/30 01:55:35;;;;;;;2.88;2.20;;;14.70;99.90;;;;;;5012730;28;20026;-63
2023/08/30 01:58:00;;;;;;;3.55;2.45;;;14.80;99.90;;;;;;5014964;28;20029;-62
2023/08/30 02:00:26;;;;;;;3.35;2.95;;;14.80;99.90;;;;;;5014395;28;20036;-62
2023/08/30 02:02:52;;;;;;;2.55;2.33;;;14.70;99.90;;;;;;5018225;28;20045;-63
2023/08/30 02:05:17;;;;;;;4.50;2.85;;;14.70;99.90;;;;;;5010865;28;20037;-63
2023/08/30 02:07:56;;;;;;;2.70;2.47;;;14.70;99.90;;;;;;5015548;28;20120;-62
2023/08/30 02:10:45;;;;;;;2.88;2.42;;;14.70;99.90;;;;;;5013414;28;20167;-62
2023/08/30 02:13:12;;;;;;;5.32;2.80;;;14.70;99.90;;;;;;5019128;28;20033;-62
2023/08/30 02:15:39;;;;;;;3.50;2.50;;;14.70;99.90;;;;;;5017703;28;20032;-62
2023/08/30 02:18:05;;;;;;;3.33;3.03;;;14.70;99.90;;;;;;5013196;28;20032;-62
2023/08/30 02:20:31;;;;;;;3.25;2.25;;;14.70;99.90;;;;;;5014257;28;20025;-62
2023/08/30 02:23:00;;;;;;;2.67;2.47;;;14.70;99.90;;;;;;5012206;28;20052;-58
2023/08/30 02:25:26;;;;;;;3.47;3.00;;;14.70;99.90;;;;;;5015706;28;20025;-58
2023/08/30 02:27:52;;;;;;;5.40;2.92;;;14.70;99.90;;;;;;5013302;28;20685;-58
2023/08/30 02:30:17;;;;;;;3.65;2.28;;;14.60;99.90;;;;;;5018053;28;20017;-58
2023/08/30 02:32:42;;;;;;;3.50;2.40;;;14.60;99.90;;;;;;5012179;28;20523;-58
2023/08/30 02:35:08;;;;;;;4.03;2.80;;;14.60;99.90;;;;;;5013943;28;20612;-58
2023/08/30 02:37:34;;;;;;;4.35;2.60;;;14.60;99.90;;;;;;5017494;28;20033;-57
2023/08/30 02:40:00;;;;;;;3.88;2.90;;;14.60;99.90;;;;;;5013128;28;20014;-58
2023/08/30 02:42:26;;;;;;;4.32;2.83;;;14.60;99.90;;;;;;5013946;28;20481;-58
2023/08/30 02:44:52;;;;;;;4.82;3.20;;;14.60;99.90;;;;;;5015929;28;20029;-58
2023/08/30 02:47:17;;;;;;;6.45;3.20;;;14.60;99.90;;;;;;5015765;28;20409;-58
2023/08/30 02:49:42;;;;;;;3.65;3.13;;;14.60;99.90;;;;;;5013869;28;20110;-57
2023/08/30 02:52:08;;;;;;;3.88;2.97;;;14.60;99.90;;;;;;5015301;28;20071;-58
2023/08/30 02:54:34;;;;;;;4.00;3.08;;;14.60;99.90;;;;;;5018473;28;20501;-58
2023/08/30 02:56:59;;;;;;;3.72;3.22;;;14.50;99.90;;;;;;5029454;28;20025;-58
2023/08/30 02:59:25;;;;;;;4.68;3.38;;;14.50;99.90;;;;;;5019576;28;20033;-58
2023/08/30 03:01:50;;;;;;;3.40;2.72;;;14.50;99.90;;;;;;5023810;28;20160;-58
2023/08/30 03:04:16;;;;;;;3.78;3.47;;;14.50;99.90;;;;;;5023776;28;20044;-59
2023/08/30 03:06:41;;;;;;;4.07;3.05;;;14.50;99.90;;;;;;5019349;28;20032;-58
2023/08/30 03:09:07;;;;;;;5.00;3.47;;;14.50;99.90;;;;;;5019689;28;20056;-58
2023/08/30 03:11:33;;;;;;;3.53;3.22;;;14.40;99.90;;;;;;5019555;28;20291;-58
2023/08/30 03:13:59;;;;;;;4.97;3.13;;;14.40;99.90;;;;;;5022736;28;20525;-59
2023/08/30 03:16:25;;;;;;;3.75;3.35;;;14.40;99.90;;;;;;5019487;28;20032;-59
2023/08/30 03:18:51;;;;;;;8.00;3.92;;;14.40;99.90;;;;;;5019316;28;20021;-58
2023/08/30 03:21:16;;;;;;;3.30;2.97;;;14.40;99.90;;;;;;5019274;28;20034;-58
2023/08/30 03:23:42;;;;;;;3.63;2.70;;;14.30;99.90;;;;;;5023549;28;20140;-58
2023/08/30 03:26:12;;;;;;;3.67;2.67;;;14.30;99.90;;;;;;5019625;28;20033;-58
2023/08/30 03:28:38;;;;;;;3.10;2.80;;;14.30;99.90;;;;;;5019461;28;20127;-59
2023/08/30 03:31:13;;;;;;;3.75;3.38;;;14.30;99.90;;;;;;5018889;28;20041;-58
2023/08/30 03:33:41;;;;;;;2.85;2.65;;;14.30;99.90;;;;;;5021699;28;20233;-59
2023/08/30 03:36:10;;;;;;;3.65;2.97;;;14.30;99.90;;;;;;5025062;28;20025;-59
2023/08/30 03:38:36;;;;;;;6.50;3.28;;;14.30;99.90;;;;;;5017760;28;20543;-56
2023/08/30 03:41:03;;;;;;;5.53;2.97;;;14.30;99.90;;;;;;5021412;28;20141;-59
2023/08/30 03:43:29;;;;;;;5.97;3.03;;;14.30;99.90;;;;;;5027036;28;20029;-58
2023/08/30 03:45:54;;;;;;;4.10;3.13;;;14.20;99.90;;;;;;5019203;28;20038;-59
2023/08/30 03:48:20;;;;;;;3.60;3.30;;;14.20;99.90;;;;;;5018222;28;20222;-58
2023/08/30 03:50:45;;;;;;;3.35;2.75;;;14.30;99.90;;;;;;5024580;28;20124;-59
2023/08/30 03:53:11;;;;;;;3.20;2.90;;;14.20;99.90;;;;;;5024886;28;20037;-58
2023/08/30 03:55:36;;;;;;;3.55;3.25;;;14.20;99.90;;;;;;5011952;28;20080;-59
2023/08/30 03:58:03;;;;;;;4.80;3.28;;;14.20;99.90;;;;;;5014785;28;20490;-58
2023/08/30 04:00:28;;;;;;;3.85;3.42;;;14.20;99.90;;;;;;5013956;28;20122;-58
2023/08/30 04:02:54;;;;;;;5.32;3.58;;;14.20;99.90;;;;;;5013477;28;20092;-59
2023/08/30 04:05:19;;;;;;;3.55;3.05;;;14.20;99.90;;;;;;5011339;28;20022;-58
2023/08/30 04:07:45;;;;;;;3.80;3.33;;;14.20;99.90;;;;;;5015052;28;20494;-60
2023/08/30 04:10:10;;;;;;;4.53;3.60;;;14.20;99.90;;;;;;5025366;28;20029;-60
2023/08/30 04:12:36;;;;;;;5.70;4.03;;;14.20;99.90;;;;;;5018216;28;20026;-60
2023/08/30 04:15:02;;;;;;;4.47;3.38;;;14.20;99.90;;;;;;5016103;28;20040;-60
2023/08/30 04:17:27;;;;;;;6.45;3.30;;;14.20;99.90;;;;;;5018520;28;20025;-60
2023/08/30 04:19:53;;;;;;;3.97;2.83;;;14.20;99.90;;;;;;5017644;28;20018;-60
2023/08/30 04:22:18;;;;;;;4.55;3.13;;;14.30;99.90;;;;;;5023122;28;20112;-59
2023/08/30 04:24:45;;;;;;;5.20;3.42;;;14.30;99.90;;;;;;5017287;28;20053;-60
2023/08/30 04:27:10;;;;;;;5.53;3.92;;;14.30;99.90;;;;;;5016769;28;20095;-59
2023/08/30 04:29:36;;;;;;;3.83;3.40;;;14.30;99.90;;;;;;5022276;28;20025;-60
2023/08/30 04:32:01;;;;;;;4.18;3.35;;;14.30;99.90;;;;;;5021760;28;20037;-58
2023/08/30 04:34:27;;;;;;;4.10;3.53;;;14.30;99.90;;;;;;5021270;28;20336;-60
2023/08/30 04:36:52;;;;;;;3.58;3.28;;;14.30;99.90;;;;;;5021447;28;20029;-60
2023/08/30 04:39:18;;;;;;;3.55;3.00;;;14.30;99.90;;;;;;5014595;28;20025;-60
2023/08/30 04:41:44;;;;;;;4.03;3.63;;;14.30;99.90;;;;;;5022135;28;20465;-60
2023/08/30 04:44:09;;;;;;;7.47;3.72;;;14.40;99.90;;;;;;5022050;28;20064;-60
2023/08/30 04:46:35;;;;;;;4.07;3.60;;;14.40;99.90;;;;;;5026258;28;20462;-60
2023/08/30 04:49:01;;;;;;;3.42;3.13;;;14.30;99.90;;;;;;5026274;28;20457;-59
2023/08/30 04:51:26;;;;;;;5.05;3.92;;;14.40;99.90;;;;;;5021847;28;20017;-60
2023/08/30 04:53:52;;;;;;;5.25;3.40;;;14.40;99.90;;;;;;5021010;28;20025;-58
2023/08/30 04:56:18;;;;;;;5.70;3.20;;;14.40;99.90;;;;;;5022946;28;20034;-60
2023/08/30 04:58:44;;;;;;;7.82;3.90;;;14.40;99.90;;;;;;5021891;28;20026;-60
2023/08/30 05:01:11;;;;;;;4.75;3.38;;;14.40;99.90;;;;;;5020527;28;20036;-60
2023/08/30 05:03:36;;;;;;;4.35;3.47;;;14.40;99.90;;;;;;5018277;28;20436;-59
2023/08/30 05:06:01;;;;;;;7.45;3.67;;;14.40;99.90;;;;;;5017245;28;20034;-59
2023/08/30 05:08:27;;;;;;;5.53;3.63;;;14.40;99.90;;;;;;5021949;28;20029;-59
2023/08/30 05:10:56;;;;;;;4.30;3.90;;;14.50;99.90;;;;;;5019498;28;20168;-60
2023/08/30 05:13:21;;;;;;;8.38;4.40;;;14.50;99.90;;;;;;5019360;28;20485;-60
2023/08/30 05:15:47;;;;;;;5.60;4.13;;;14.50;99.90;;;;;;5023554;28;20043;-59
2023/08/30 05:18:12;;;;;;;5.25;3.95;;;14.50;99.90;;;;;;5018755;28;20026;-60
2023/08/30 05:20:38;;;;;;;4.85;4.22;;;14.60;99.90;;;;;;5022871;28;20113;-59
2023/08/30 05:23:03;;;;;;;4.75;3.58;;;14.60;99.90;;;;;;5023629;28;20520;-59
2023/08/30 05:25:29;;;;;;;5.35;4.35;;;14.60;99.90;;;;;;5023189;28;20022;-60
2023/08/30 05:27:54;;;;;;;6.53;4.93;;;14.60;99.90;;;;;;5021086;28;20053;-60
2023/08/30 05:30:20;;;;;;;6.00;4.35;;;14.70;99.90;;;;;;5021386;28;20087;-59
2023/08/30 05:32:45;;;;;;;4.88;4.07;;;14.70;99.90;;;;;;5020119;28;20146;-59
2023/08/30 05:35:11;;;;;;;4.88;4.38;;;14.70;99.90;;;;;;5021080;28;20037;-59
2023/08/30 05:37:36;;;;;;;6.03;4.43;;;14.70;99.90;;;;;;5020899;28;20083;-59
2023/08/30 05:40:03;;;;;;;6.40;4.07;;;14.80;99.90;;;;;;5019102;28;20052;-60
2023/08/30 05:42:28;;;;;;;4.97;4.03;;;14.80;99.90;;;;;;5021747;28;20045;-59
2023/08/30 05:44:54;;;;;;;5.47;3.83;;;14.90;99.90;;;;;;5022130;28;20389;-60
2023/08/30 05:47:21;;;;;;;5.13;4.55;;;15.00;99.90;;;;;;5018481;28;20048;-60
2023/08/30 05:49:46;;;;;;;5.53;3.63;;;15.10;99.90;;;;;;5022318;28;20028;-59
2023/08/30 05:52:12;;;;;;;7.50;3.78;;;15.10;99.90;;;;;;5020934;28;20092;-60
2023/08/30 05:54:37;;;;;;;4.97;3.45;;;15.30;99.90;;;;;;5020692;28;20013;-59
2023/08/30 05:57:03;;;;;;;4.13;3.60;;;15.40;99.90;;;;;;5022635;28;20026;-59
2023/08/30 05:59:29;;;;;;;4.53;3.70;;;15.50;99.90;;;;;;5020598;28;20033;-59
2023/08/30 06:01:55;;;;;;;3.50;3.17;;;15.50;99.90;;;;;;5020646;28;20469;-60
2023/08/30 06:04:20;;;;;;;4.07;3.38;;;15.50;99.90;;;;;;5020996;28;20103;-59
2023/08/30 06:06:46;;;;;;;4.25;3.85;;;15.60;99.90;;;;;;5020378;28;20033;-60
2023/08/30 06:09:14;;;;;;;3.53;3.22;;;15.60;99.90;;;;;;5020415;28;20022;-59
2023/08/30 06:11:40;;;;;;;5.05;3.92;;;15.70;99.90;;;;;;5020484;28;20397;-59
2023/08/30 06:14:06;;;;;;;4.32;3.92;;;15.80;99.90;;;;;;5016517;28;20029;-60
2023/08/30 06:16:31;;;;;;;4.28;3.38;;;15.80;99.90;;;;;;5019585;28;20134;-60
2023/08/30 06:18:58;;;;;;;5.72;3.30;;;15.90;99.90;;;;;;5020529;28;20029;-60
2023/08/30 06:21:25;;;;;;;4.93;3.42;;;15.90;99.90;;;;;;5020235;28;20036;-60
2023/08/30 06:23:50;;;;;;;5.78;3.85;;;16.00;99.90;;;;;;5020223;28;20103;-59
2023/08/30 06:26:16;;;;;;;4.78;3.30;;;16.10;99.90;;;;;;5020077;28;20468;-58
2023/08/30 06:28:42;;;;;;;7.57;3.45;;;16.20;99.90;;;;;;5025657;28;20481;-57
2023/08/30 06:31:08;;;;;;;4.40;3.30;;;16.20;99.90;;;;;;5018000;28;20025;-57
2023/08/30 06:33:33;;;;;;;4.88;3.78;;;16.30;99.90;;;;;;5019925;28;20025;-58
2023/08/30 06:35:59;;;;;;;5.68;4.18;;;16.30;99.90;;;;;;5024704;28;20029;-58
2023/08/30 06:38:24;;;;;;;4.78;3.45;;;16.40;99.90;;;;;;5024015;28;20028;-58
2023/08/30 06:40:51;;;;;;;5.30;3.50;;;16.40;99.90;;;;;;5020003;28;20494;-57
2023/08/30 06:43:18;;;;;;;4.30;3.53;;;16.40;99.90;;;;;;5021919;28;20034;-58
2023/08/30 06:45:43;;;;;;;4.30;3.40;;;16.50;99.90;;;;;;5020197;28;20041;-57
2023/08/30 06:48:09;;;;;;;4.95;3.80;;;16.50;99.90;;;;;;5022272;28;20492;-58
2023/08/30 06:50:35;;;;;;;4.47;3.33;;;16.50;99.90;;;;;;5016671;28;20064;-58
2023/08/30 06:53:02;;;;;;;4.43;3.08;;;16.50;99.90;;;;;;5020321;28;20026;-58
2023/08/30 06:55:27;;;;;;;7.30;3.97;;;16.50;99.90;;;;;;5021160;28;20087;-58
2023/08/30 06:57:53;;;;;;;4.57;3.15;;;16.60;99.90;;;;;;5019467;28;20477;-57
2023/08/30 07:00:19;;;;;;;6.88;3.40;;;16.70;99.90;;;;;;5021372;28;20056;-57
2023/08/30 07:02:45;;;;;;;3.35;2.92;;;16.70;99.90;;;;;;5019535;28;20040;-58
2023/08/30 07:05:11;;;;;;;5.50;3.33;;;16.80;99.90;;;;;;5019486;28;20018;-57
2023/08/30 07:07:37;;;;;;;3.55;2.97;;;16.80;99.90;;;;;;5017446;28;20111;-59
2023/08/30 07:10:04;;;;;;;3.70;3.03;;;16.90;99.90;;;;;;5021715;28;20390;-58
2023/08/30 07:12:29;;;;;;;4.18;3.40;;;16.90;99.90;;;;;;5023360;28;20025;-58
2023/08/30 07:14:55;;;;;;;4.72;3.72;;;17.00;99.90;;;;;;5017067;28;20093;-57
2023/08/30 07:17:21;;;;;;;3.70;3.15;;;17.10;99.90;;;;;;5017844;28;20064;-58
2023/08/30 07:19:46;;;;;;;4.65;3.30;;;17.10;99.90;;;;;;5019996;28;20022;-58
2023/08/30 07:22:12;;;;;;;6.32;3.25;;;17.30;99.90;;;;;;5021390;28;20025;-59
2023/08/30 07:24:37;;;;;;;3.35;2.75;;;17.30;99.90;;;;;;5016421;28;20026;-59
2023/08/30 07:27:03;;;;;;;3.45;2.90;;;17.40;99.90;;;;;;5024472;28;20034;-58
2023/08/30 07:29:28;;;;;;;3.90;3.08;;;17.50;99.90;;;;;;5021075;28;20033;-58
2023/08/30 07:31:54;;;;;;;4.03;3.20;;;17.60;99.90;;;;;;5024957;28;20516;-59
2023/08/30 07:34:20;;;;;;;3.78;2.78;;;17.70;99.90;;;;;;5019126;28;20072;-58
2023/08/30 07:36:46;;;;;;;8.38;4.00;;;17.80;99.90;;;;;;5023265;28;20447;-58
2023/08/30 07:39:12;;;;;;;5.18;2.88;;;17.90;99.90;;;;;;5015937;28;20049;-58
2023/08/30 07:41:37;;;;;;;2.90;2.38;;;18.10;99.90;;;;;;5021949;28;20028;-59
2023/08/30 07:44:03;;;;;;;4.60;3.15;;;18.20;99.90;;;;;;5017411;28;20033;-59
2023/08/30 07:46:28;;;;;;;7.20;2.95;;;18.30;99.90;;;;;;5017875;28;20428;-59
2023/08/30 07:48:55;;;;;;;3.42;2.83;;;18.50;99.90;;;;;;5024311;28;20025;-59
2023/08/30 07:51:21;;;;;;;3.53;2.60;;;18.70;99.90;;;;;;5024116;28;20276;-57
2023/08/30 07:53:46;;;;;;;3.35;2.22;;;19.00;99.90;;;;;;5019128;28;20022;-58
2023/08/30 07:56:12;;;;;;;2.90;2.65;;;19.10;99.90;;;;;;5018838;28;20558;-57
2023/08/30 07:58:37;;;;;;;4.07;3.10;;;19.20;99.90;;;;;;5018648;28;20025;-57
2023/08/30 08:01:03;;;;;;;4.63;2.88;;;19.30;99.90;;;;;;5018931;28;20444;-58
2023/08/30 08:03:28;;;;;;;6.05;2.50;;;19.40;99.90;;;;;;5020800;28;20044;-57
2023/08/30 08:05:54;;;;;;;3.70;2.45;;;19.50;99.90;;;;;;5022334;28;20079;-58
2023/08/30 08:08:19;;;;;;;2.22;1.92;;;19.50;99.90;;;;;;5032799;28;20032;-58
2023/08/30 08:10:45;;;;;;;3.35;3.05;;;19.50;99.90;;;;;;5024968;28;20507;-58
2023/08/30 08:13:12;;;;;;;2.95;2.53;;;19.50;99.90;;;;;;5016626;28;20037;-58
2023/08/30 08:15:38;;;;;;;4.30;2.70;;;19.50;99.90;;;;;;5023001;28;20025;-57
2023/08/30 08:18:03;;;;;;;4.20;2.60;;;19.50;99.90;;;;;;5028485;28;20025;-57
2023/08/30 08:20:29;;;;;;;3.05;2.38;;;19.50;99.90;;;;;;5022346;28;20032;-58
2023/08/30 08:22:55;;;;;;;3.58;2.85;;;19.60;99.90;;;;;;5022390;28;20025;-58
2023/08/30 08:25:23;;;;;;;2.90;2.10;;;19.60;99.90;;;;;;5022458;28;20030;-58
2023/08/30 08:27:48;;;;;;;3.63;2.10;;;19.60;98.60;;;;;;5025721;28;20488;-58
2023/08/30 08:30:14;;;;;;;4.53;2.28;;;19.60;97.40;;;;;;5019443;28;20048;-58
2023/08/30 08:32:39;;;;;;;3.13;1.92;;;19.60;97.00;;;;;;5024021;28;20387;-58
2023/08/30 08:35:05;;;;;;;2.22;1.83;;;19.60;97.50;;;;;;5024979;28;20374;-58
2023/08/30 08:37:32;;;;;;;3.20;2.38;;;19.70;97.70;;;;;;5018922;28;20041;-58
2023/08/30 08:39:57;;;;;;;1.98;1.88;;;19.70;96.90;;;;;;5024399;28;20097;-58
2023/08/30 08:42:23;;;;;;;2.95;2.17;;;19.80;96.50;;;;;;5021732;28;20116;-58
2023/08/30 08:44:53;;;;;;;3.55;2.20;;;20.00;96.50;;;;;;5025235;28;20135;-58
2023/08/30 08:47:21;;;;;;;4.78;2.20;;;20.10;95.80;;;;;;5020937;28;20123;-58
2023/08/30 08:49:47;;;;;;;2.20;1.50;;;20.20;95.50;;;;;;5022238;28;20036;-58
2023/08/30 08:52:14;;;;;;;3.40;1.70;;;20.40;95.10;;;;;;5019706;28;20029;-56
2023/08/30 08:54:40;;;;;;;3.05;1.63;;;20.60;94.20;;;;;;5021798;28;20048;-57
2023/08/30 08:57:09;;;;;;;5.57;1.48;;;20.80;93.00;;;;;;5024340;28;20493;-58
2023/08/30 08:59:34;;;;;;;2.55;1.80;;;21.00;92.40;;;;;;5023059;28;20026;-58
2023/08/30 09:02:04;;;;;;;3.97;1.58;;;21.30;91.70;;;;;;5020026;28;20028;-58
2023/08/30 09:04:32;;;;;;;3.58;1.55;;;21.50;91.60;;;;;;5025180;28;20412;-58
2023/08/30 09:06:59;;;;;;;4.35;1.75;;;21.60;91.20;;;;;;5024400;28;20113;-58
2023/08/30 09:09:25;;;;;;;2.35;1.65;;;21.70;90.60;;;;;;5020213;28;20036;-58
2023/08/30 09:11:51;;;;;;;3.13;1.30;;;21.90;90.10;;;;;;5023667;28;20022;-58
2023/08/30 09:14:17;;;;;;;2.42;1.38;;;21.90;88.10;;;;;;5017321;28;20029;-58
2023/08/30 09:16:43;;;;;;;2.03;1.40;;;21.90;88.50;;;;;;5020995;28;20220;-57
2023/08/30 09:19:10;;;;;;;2.20;2.00;;;22.10;88.80;;;;;;5021575;28;20237;-58
2023/08/30 09:21:36;;;;;;;2.00;1.45;;;22.30;87.70;;;;;;5022638;28;20023;-58
2023/08/30 09:24:03;;;;;;;1.48;1.20;;;22.60;87.40;;;;;;5024228;28;20100;-58
2023/08/30 09:26:31;;;;;;;1.27;1.17;;;23.00;88.20;;;;;;5020964;28;20060;-58
2023/08/30 09:29:08;;;;;;;1.27;1.08;;;23.50;88.30;;;;;;5022933;28;20110;-58
2023/08/30 09:31:34;;;;;;;2.13;1.10;;;24.10;83.50;;;;;;5014366;28;20567;-58
2023/08/30 09:34:01;;;;;;;1.98;1.05;;;24.50;83.80;;;;;;5021014;28;20045;-58
2023/08/30 09:36:32;;;;;;;1.55;1.00;;;24.90;81.90;;;;;;5021399;28;20030;-58
2023/08/30 09:38:58;;;;;;;2.15;0.95;;;25.30;79.70;;;;;;5019560;28;20481;-58
2023/08/30 09:41:24;;;;;;;3.17;1.17;;;25.50;76.70;;;;;;5025070;28;20048;-57
2023/08/30 09:43:50;;;;;;;1.08;0.93;;;25.60;77.40;;;;;;5021162;28;20029;-58
2023/08/30 09:46:16;;;;;;;1.58;0.93;;;25.70;75.40;;;;;;5020946;28;20397;-58
2023/08/30 09:48:41;;;;;;;1.15;0.90;;;25.80;73.80;;;;;;5020598;28;20017;-58
2023/08/30 09:51:09;;;;;;;1.17;0.98;;;26.00;72.10;;;;;;5025647;28;20303;-58
2023/08/30 09:53:42;;;;;;;1.42;1.00;;;26.10;70.90;;;;;;5023712;28;20021;-58
2023/08/30 09:56:10;;;;;;;0.93;0.80;;;26.30;66.30;;;;;;5017224;28;20506;-59
2023/08/30 09:58:36;;;;;;;1.27;0.90;;;26.50;67.70;;;;;;5020680;28;20113;-58
2023/08/30 10:01:02;;;;;;;0.70;0.70;;;26.60;66.40;;;;;;5021301;28;20020;-58
2023/08/30 10:03:30;;;;;;;0.80;0.80;;;26.60;64.80;;;;;;5019615;28;20481;-58
2023/08/30 10:05:56;;;;;;;0.98;0.85;;;26.60;64.20;;;;;;5018933;28;20025;-58
2023/08/30 10:08:23;;;;;;;2.85;0.95;;;26.60;63.20;;;;;;5021872;28;20496;-58
2023/08/30 10:10:50;;;;;;;1.48;0.77;;;26.70;61.70;;;;;;5019990;28;20025;-60
2023/08/30 10:13:18;;;;;;;3.30;0.98;;;26.70;59.20;;;;;;5013158;28;20036;-49
2023/08/30 10:15:47;;;;;;;1.25;1.10;;;26.50;57.50;;;;;;5024892;28;20599;-47
2023/08/30 10:18:19;;;;;;;2.08;1.15;;;26.30;54.20;;;;;;5024254;28;20029;-52
2023/08/30 10:20:45;;;;;;;1.15;1.00;;;26.20;54.50;;;;;;5020232;28;20041;-53
2023/08/30 10:23:11;;;;;;;1.77;1.10;;;26.00;54.40;;;;;;5022313;28;20029;-50
2023/08/30 10:25:38;;;;;;;1.67;1.10;;;25.70;54.80;;;;;;5020220;28;20021;-49
2023/08/30 10:28:04;;;;;;;1.08;0.70;;;25.50;54.40;;;;;;5019340;28;20079;-49
2023/08/30 10:30:30;;;;;;;2.40;0.80;;;25.50;55.20;;;;;;5016344;28;20026;-51
2023/08/30 10:32:56;;;;;;;1.45;0.75;;;25.40;54.60;;;;;;5022845;28;20094;-50
2023/08/30 10:35:21;;;;;;;0.73;0.73;;;25.50;54.20;;;;;;5022535;28;20428;-50
2023/08/30 10:37:59;;;;;;;1.98;0.63;;;25.50;53.40;;;;;;5021981;28;20033;-51
2023/08/30 10:40:24;;;;;;;0.82;0.68;;;25.70;51.80;;;;;;5015813;28;20109;-50
2023/08/30 10:43:03;;;;;;;3.70;0.80;;;25.90;53.20;;;;;;5019782;28;20140;-50
2023/08/30 10:45:29;;;;;;;1.10;0.85;;;26.00;49.20;;;;;;5019810;28;20048;-49
2023/08/30 10:47:56;;;;;;;1.92;0.75;;;26.00;50.90;;;;;;5019651;28;20025;-50
2023/08/30 10:50:32;;;;;;;1.00;0.85;;;26.10;51.10;;;;;;5019878;28;20222;-53
2023/08/30 10:52:58;;;;;;;1.13;0.70;;;26.10;49.50;;;;;;5022946;28;20025;-50
2023/08/30 10:55:24;;;;;;;1.67;0.85;;;26.10;50.10;;;;;;5016462;28;20029;-49
2023/08/30 10:57:59;;;;;;;1.10;0.73;;;26.10;50.20;;;;;;5021648;28;20030;-48
2023/08/30 11:00:27;;;;;;;1.08;0.80;;;26.00;45.40;;;;;;5020313;28;20027;-49
2023/08/30 11:02:53;;;;;;;1.95;0.90;;;25.90;48.80;;;;;;5016262;28;20477;-51
2023/08/30 11:05:21;;;;;;;0.77;0.70;;;25.80;48.90;;;;;;5021452;28;20022;-49
2023/08/30 11:07:48;;;;;;;0.90;0.90;;;25.80;48.10;;;;;;5022474;28;20098;-49
2023/08/30 11:10:14;;;;;;;1.48;0.75;;;25.80;47.70;;;;;;5015902;28;20040;-52
2023/08/30 11:12:41;;;;;;;1.15;0.73;;;25.80;47.60;;;;;;5011504;28;20390;-55
2023/08/30 11:15:08;;;;;;;1.20;1.10;;;25.90;47.50;;;;;;5013362;28;20405;-54
2023/08/30 11:17:34;;;;;;;1.23;0.90;;;26.00;46.90;;;;;;5012977;28;20029;-50
2023/08/30 11:20:09;;;;;;;1.42;0.98;;;26.00;46.60;;;;;;5011643;28;20045;-48
2023/08/30 11:22:41;;;;;;;1.52;1.30;;;25.90;43.50;;;;;;5014544;28;20366;-50
2023/08/30 11:25:09;;;;;;;0.85;0.85;;;25.90;44.40;;;;;;5011995;28;20053;-51
2023/08/30 11:27:35;;;;;;;0.77;0.77;;;25.90;45.50;;;;;;5011272;28;20045;-50
2023/08/30 11:30:03;;;;;;;1.25;1.10;;;25.80;45.00;;;;;;5021150;28;20017;-48
2023/08/30 11:32:31;;;;;;;1.08;0.98;;;25.80;45.00;;;;;;5016679;28;20265;-50
2023/08/30 11:34:58;;;;;;;2.50;1.13;;;25.80;45.00;;;;;;5023649;28;20079;-51
2023/08/30 11:37:26;;;;;;;0.98;0.90;;;25.60;43.70;;;;;;5023472;28;20026;-48
2023/08/30 11:39:52;;;;;;;2.10;1.20;;;25.70;44.90;;;;;;5026891;28;20052;-52
2023/08/30 11:42:19;;;;;;;1.15;1.02;;;25.80;45.10;;;;;;5026595;28;20430;-49
2023/08/30 11:44:45;;;;;;;1.60;1.10;;;25.80;44.50;;;;;;5021305;28;20030;-51
2023/08/30 11:47:11;;;;;;;1.20;1.00;;;25.80;43.60;;;;;;5028065;28;20037;-49
2023/08/30 11:49:39;;;;;;;1.58;0.85;;;25.80;44.00;;;;;;5035579;28;20022;-50
2023/08/30 11:52:05;;;;;;;1.48;0.82;;;25.90;43.50;;;;;;5023868;28;20044;-49
2023/08/30 11:54:31;;;;;;;1.80;1.00;;;25.90;43.20;;;;;;5025565;28;20029;-50
2023/08/30 11:56:56;;;;;;;2.65;0.80;;;25.90;43.20;;;;;;5025421;28;20481;-49
2023/08/30 11:59:22;;;;;;;1.75;1.00;;;25.90;43.30;;;;;;5022079;28;20048;-49
2023/08/30 12:01:54;;;;;;;1.40;0.90;;;25.80;42.80;;;;;;5028095;28;20029;-50
2023/08/30 12:04:20;;;;;;;1.10;0.82;;;25.80;41.60;;;;;;5025906;28;20032;-51
2023/08/30 12:06:53;;;;;;;1.63;1.25;;;25.70;42.30;;;;;;5028607;28;20034;-53
2023/08/30 12:09:21;;;;;;;3.35;1.00;;;25.60;41.70;;;;;;5028171;28;20036;-52
2023/08/30 12:11:50;;;;;;;2.00;1.00;;;25.60;42.70;;;;;;5027721;28;20027;-50
2023/08/30 12:14:16;;;;;;;0.98;0.88;;;25.50;42.60;;;;;;5020376;28;20092;-51
2023/08/30 12:16:42;;;;;;;3.58;1.50;;;25.50;42.60;;;;;;5029660;28;20025;-48
2023/08/30 12:19:12;;;;;;;1.00;0.77;;;25.50;43.60;;;;;;5023344;28;20056;-52
2023/08/30 12:21:42;;;;;;;2.80;1.55;;;25.50;42.80;;;;;;5019921;28;20026;-53
2023/08/30 12:24:07;;;;;;;1.42;1.23;;;25.60;42.50;;;;;;5026482;28;20021;-50
2023/08/30 12:26:33;;;;;;;1.90;1.15;;;25.60;42.50;;;;;;5032435;28;20111;-51
2023/08/30 12:28:58;;;;;;;1.38;1.13;;;25.60;42.50;;;;;;5027085;28;20048;-47
2023/08/30 12:31:24;;;;;;;1.45;0.90;;;25.70;42.00;;;;;;5024805;28;20525;-50
2023/08/30 12:33:49;;;;;;;2.05;1.00;;;25.70;41.60;;;;;;5025131;28;20086;-52
2023/08/30 12:36:15;;;;;;;1.75;1.02;;;25.60;41.40;;;;;;5027251;28;20052;-51
2023/08/30 12:38:40;;;;;;;3.42;1.10;;;25.60;41.30;;;;;;5025085;28;20049;-53
2023/08/30 12:41:06;;;;;;;1.50;1.20;;;25.50;41.30;;;;;;5025170;28;20547;-52
2023/08/30 12:43:31;;;;;;;1.15;0.90;;;25.50;41.80;;;;;;5028871;28;20014;-53
2023/08/30 12:45:57;;;;;;;1.23;1.13;;;25.50;42.00;;;;;;5025174;28;20295;-52